Time;durP1;ratioP1;P1;durP2;ratioP2;P2;SDS_P1;SDS_P2;PMS_P1;PMS_P2;Temp;Humidity;BMP_temperature;BMP_pressure;BME280_temperature;BME280_humidity;BME280_pressure;Samples;Min_cycle;Max_cycle;Signal;HPM_P1;HPM_P2
2022/03/28 00:00:27;;;;;;;40.10;35.80;;;;;;;-0.15;44.23;98908.33;105302;1284;24421;-80
2022/03/28 00:03:07;;;;;;;44.70;33.60;;;;;;;-0.19;44.21;98902.73;105399;1285;23347;-81
2022/03/28 00:05:35;;;;;;;42.90;37.70;;;;;;;-0.22;44.14;98897.81;105640;1284;22910;-81
2022/03/28 00:08:04;;;;;;;39.20;34.20;;;;;;;-0.23;44.06;98891.23;105350;1284;24312;-81
2022/03/28 00:10:32;;;;;;;53.50;48.10;;;;;;;-0.26;43.80;98883.23;105531;1283;22567;-79
2022/03/28 00:13:00;;;;;;;40.40;36.10;;;;;;;-0.30;44.06;98878.91;105527;1284;22720;-79
2022/03/28 00:15:29;;;;;;;39.40;34.80;;;;;;;-0.32;44.17;98878.55;105529;1284;22568;-82
2022/03/28 00:17:56;;;;;;;40.20;35.40;;;;;;;-0.34;44.98;98878.38;105999;1284;22599;-79
2022/03/28 00:20:25;;;;;;;39.90;35.60;;;;;;;-0.33;45.38;98882.16;106260;1283;25446;-80
2022/03/28 00:22:53;;;;;;;48.00;43.00;;;;;;;-0.34;45.72;98880.86;107154;1284;22557;-79
2022/03/28 00:25:20;;;;;;;51.80;46.20;;;;;;;-0.36;45.20;98876.84;106864;1284;22730;-76
2022/03/28 00:27:48;;;;;;;41.30;36.90;;;;;;;-0.38;45.24;98875.08;107730;1284;22579;-79
2022/03/28 00:30:16;;;;;;;39.80;33.60;;;;;;;-0.39;45.03;98871.70;104849;1285;170437;-79
2022/03/28 00:32:45;;;;;;;40.70;36.20;;;;;;;-0.41;45.49;98870.15;105288;1284;22698;-79
2022/03/28 00:35:13;;;;;;;49.60;43.10;;;;;;;-0.43;44.94;98865.18;105273;1284;22697;-80
2022/03/28 00:37:41;;;;;;;39.20;34.50;;;;;;;-0.50;44.66;98867.51;105231;1284;25300;-80
2022/03/28 00:40:10;;;;;;;38.90;34.90;;;;;;;-0.60;45.40;98867.17;105406;1285;23025;-82
2022/03/28 00:42:38;;;;;;;41.80;36.10;;;;;;;-0.64;45.38;98864.11;105218;1285;24399;-81
2022/03/28 00:45:07;;;;;;;39.00;34.70;;;;;;;-0.70;45.29;98867.04;105071;1284;24329;-80
2022/03/28 00:47:35;;;;;;;39.10;35.00;;;;;;;-0.71;46.81;98864.96;105009;1284;24433;-81
2022/03/28 00:50:04;;;;;;;39.30;34.90;;;;;;;-0.71;46.59;98862.23;105163;1284;22569;-79
2022/03/28 00:52:33;;;;;;;47.30;41.20;;;;;;;-0.69;46.44;98858.48;105199;1284;25264;-78
2022/03/28 00:55:03;;;;;;;43.60;39.00;;;;;;;-0.68;45.93;98856.42;104974;1284;22733;-81
2022/03/28 00:57:31;;;;;;;43.80;38.20;;;;;;;-0.67;45.97;98852.11;105242;1284;25677;-80
2022/03/28 01:00:02;;;;;;;50.40;44.70;;;;;;;-0.69;45.68;98850.96;105203;1285;24451;-82
2022/03/28 01:02:30;;;;;;;47.90;42.90;;;;;;;-0.71;45.61;98847.96;105246;1284;22623;-82
2022/03/28 01:04:59;;;;;;;42.80;38.20;;;;;;;-0.69;45.60;98845.83;105134;1284;22563;-82
2022/03/28 01:07:27;;;;;;;40.90;36.60;;;;;;;-0.71;45.84;98843.05;105568;1284;22743;-81
2022/03/28 01:09:58;;;;;;;41.90;36.40;;;;;;;-0.71;45.71;98841.60;105700;1284;22796;-79
2022/03/28 01:12:30;;;;;;;41.20;35.60;;;;;;;-0.71;45.76;98836.95;105514;1284;25377;-77
2022/03/28 01:14:59;;;;;;;42.40;37.80;;;;;;;-0.75;45.73;98831.00;105563;1284;26495;-80
2022/03/28 01:20:14;;;;;;;41.80;37.10;;;;;;;-0.80;46.82;98820.70;105265;1285;22888;-80
2022/03/28 01:22:42;;;;;;;41.90;37.30;;;;;;;-0.84;46.86;98819.59;105449;1284;22661;-79
2022/03/28 01:25:10;;;;;;;45.10;38.80;;;;;;;-0.88;46.82;98819.38;105133;1284;22719;-80
2022/03/28 01:27:39;;;;;;;56.60;50.20;;;;;;;-0.93;46.80;98812.09;105022;1284;25431;-79
2022/03/28 01:30:08;;;;;;;45.10;40.30;;;;;;;-1.01;46.59;98813.19;105188;1284;25490;-80
2022/03/28 01:32:36;;;;;;;45.10;40.20;;;;;;;-1.11;46.78;98813.37;105272;1284;22581;-80
2022/03/28 01:35:05;;;;;;;44.80;37.60;;;;;;;-1.17;47.44;98809.45;105456;1284;22556;-80
2022/03/28 01:37:33;;;;;;;48.80;38.50;;;;;;;-1.21;47.35;98807.08;104996;1284;25428;-80
2022/03/28 01:40:02;;;;;;;47.40;42.30;;;;;;;-1.23;48.01;98806.15;105136;1284;24238;-80
2022/03/28 01:42:30;;;;;;;48.60;42.10;;;;;;;-1.24;48.18;98804.35;105417;1284;22580;-81
2022/03/28 01:44:58;;;;;;;48.00;40.20;;;;;;;-1.24;47.94;98800.15;105468;1284;25329;-80
2022/03/28 01:47:26;;;;;;;45.70;40.90;;;;;;;-1.24;47.77;98794.99;105472;1284;23020;-80
2022/03/28 01:50:21;;;;;;;47.50;42.50;;;;;;;-1.25;48.28;98798.50;105581;1284;25337;-81
2022/03/28 01:52:49;;;;;;;50.90;45.40;;;;;;;-1.25;48.15;98798.17;105402;1284;24302;-81
2022/03/28 01:55:18;;;;;;;53.80;48.20;;;;;;;-1.24;47.82;98793.45;105419;1284;22704;-81
2022/03/28 01:57:45;;;;;;;52.10;46.50;;;;;;;-1.24;47.88;98794.55;106532;1284;22505;-80
2022/03/28 02:00:16;;;;;;;51.30;46.00;;;;;;;-1.25;48.05;98788.56;105693;1286;26619;-81
2022/03/28 02:02:47;;;;;;;47.70;42.60;;;;;;;-1.23;48.44;98785.56;105420;1284;24417;-81
2022/03/28 02:05:16;;;;;;;48.40;43.10;;;;;;;-1.19;48.76;98785.86;105236;1285;22551;-81
2022/03/28 02:07:46;;;;;;;52.70;44.80;;;;;;;-1.14;48.93;98787.70;105490;1284;22626;-81
2022/03/28 02:10:18;;;;;;;50.80;44.70;;;;;;;-1.11;48.36;98787.38;105327;1284;22566;-82
2022/03/28 02:12:47;;;;;;;49.70;44.40;;;;;;;-1.13;48.21;98789.57;105680;1284;22735;-80
2022/03/28 02:15:16;;;;;;;54.10;48.50;;;;;;;-1.15;48.20;98786.96;105508;1284;22994;-81
2022/03/28 02:17:44;;;;;;;53.50;47.90;;;;;;;-1.14;48.35;98788.27;105440;1284;26643;-80
2022/03/28 02:20:14;;;;;;;55.90;50.10;;;;;;;-1.10;48.52;98784.33;105363;1284;22783;-80
2022/03/28 02:22:43;;;;;;;56.80;50.80;;;;;;;-1.01;48.48;98783.20;105342;1284;23553;-80
2022/03/28 02:25:13;;;;;;;56.90;51.00;;;;;;;-0.95;48.69;98777.37;105194;1284;25488;-81
2022/03/28 02:27:43;;;;;;;55.50;49.60;;;;;;;-0.88;48.45;98778.14;105528;1284;25427;-81
2022/03/28 02:30:13;;;;;;;55.10;49.30;;;;;;;-0.88;48.30;98774.85;105496;1284;22880;-80
2022/03/28 02:32:42;;;;;;;57.40;50.50;;;;;;;-0.94;48.31;98773.88;105484;1284;25408;-81
2022/03/28 02:35:11;;;;;;;60.10;53.70;;;;;;;-0.98;48.52;98773.02;105516;1284;24207;-81
2022/03/28 02:37:39;;;;;;;60.60;54.40;;;;;;;-1.02;48.40;98767.56;105490;1284;24397;-80
2022/03/28 02:40:08;;;;;;;55.70;49.60;;;;;;;-1.06;48.56;98765.52;105448;1284;22543;-80
2022/03/28 02:42:36;;;;;;;63.10;56.10;;;;;;;-1.11;48.62;98765.84;105221;1284;22569;-81
2022/03/28 02:45:04;;;;;;;65.70;58.60;;;;;;;-1.18;48.95;98758.30;105180;1284;22708;-81
2022/03/28 02:47:33;;;;;;;72.00;60.20;;;;;;;-1.23;48.97;98757.49;105488;1284;22712;-81
2022/03/28 02:50:01;;;;;;;69.60;61.80;;;;;;;-1.26;49.01;98753.50;105436;1284;22801;-81
2022/03/28 02:52:29;;;;;;;69.00;61.40;;;;;;;-1.30;49.19;98754.77;105477;1284;23009;-79
2022/03/28 02:54:56;;;;;;;69.90;62.40;;;;;;;-1.34;49.35;98746.16;105315;1284;25373;-80
2022/03/28 02:57:24;;;;;;;69.30;60.50;;;;;;;-1.37;49.37;98741.69;105304;1284;22566;-79
2022/03/28 02:59:52;;;;;;;69.30;61.60;;;;;;;-1.39;49.52;98742.42;105060;1284;23183;-81
2022/03/28 03:02:20;;;;;;;76.20;62.80;;;;;;;-1.41;49.95;98740.59;105291;1284;22563;-81
2022/03/28 03:04:48;;;;;;;75.50;62.60;;;;;;;-1.42;50.31;98739.70;105029;1284;22651;-80
2022/03/28 03:07:16;;;;;;;74.10;63.50;;;;;;;-1.42;50.33;98738.17;105167;1285;22625;-80
2022/03/28 03:09:44;;;;;;;76.10;67.00;;;;;;;-1.43;50.49;98732.31;105426;1284;24292;-81
2022/03/28 03:12:11;;;;;;;92.00;75.70;;;;;;;-1.45;51.05;98730.20;105469;1284;22695;-81
2022/03/28 03:14:39;;;;;;;101.00;76.40;;;;;;;-1.43;51.05;98725.36;105417;1284;23014;-83
2022/03/28 03:17:07;;;;;;;110.10;77.70;;;;;;;-1.42;51.09;98728.77;105152;1285;26642;-78
2022/03/28 03:19:35;;;;;;;120.50;81.60;;;;;;;-1.42;51.00;98730.34;105359;1285;25521;-80
2022/03/28 03:22:03;;;;;;;94.30;74.30;;;;;;;-1.44;51.20;98727.48;105220;1284;22600;-79
2022/03/28 03:24:32;;;;;;;105.40;75.80;;;;;;;-1.45;51.15;98730.61;105074;1284;25308;-80
2022/03/28 03:27:00;;;;;;;112.00;76.60;;;;;;;-1.48;51.58;98731.51;105187;1285;22703;-82
2022/03/28 03:29:28;;;;;;;104.50;77.50;;;;;;;-1.47;51.40;98728.08;105311;1284;22564;-82
2022/03/28 03:31:56;;;;;;;127.00;82.80;;;;;;;-1.41;51.32;98723.74;105362;1284;25428;-81
2022/03/28 03:34:24;;;;;;;108.60;78.70;;;;;;;-1.32;51.36;98724.41;105075;1284;22645;-81
2022/03/28 03:36:52;;;;;;;93.30;74.90;;;;;;;-1.30;51.66;98725.11;105516;1284;22560;-80
2022/03/28 03:39:25;;;;;;;99.70;76.40;;;;;;;-1.31;51.75;98724.61;105397;1284;23369;-80
2022/03/28 03:41:53;;;;;;;96.60;73.90;;;;;;;-1.32;52.04;98724.32;105242;1285;25380;-80
2022/03/28 03:44:22;;;;;;;83.80;70.30;;;;;;;-1.36;52.04;98719.89;105213;1284;22629;-80
2022/03/28 03:46:50;;;;;;;83.20;67.60;;;;;;;-1.43;52.12;98721.30;105221;1285;25383;-78
2022/03/28 03:49:17;;;;;;;88.50;70.90;;;;;;;-1.48;52.37;98715.64;105018;1284;22667;-80
2022/03/28 03:51:46;;;;;;;80.60;67.50;;;;;;;-1.50;52.57;98715.63;105308;1284;25660;-80
2022/03/28 03:54:13;;;;;;;82.30;72.60;;;;;;;-1.57;52.21;98713.30;105212;1284;23122;-78
2022/03/28 03:56:42;;;;;;;78.50;68.80;;;;;;;-1.59;52.22;98709.03;105038;1284;24319;-79
2022/03/28 03:59:10;;;;;;;72.40;64.40;;;;;;;-1.59;52.35;98709.18;104999;1284;22698;-79
2022/03/28 04:01:38;;;;;;;83.90;65.10;;;;;;;-1.62;52.19;98707.23;105127;1284;22545;-79
2022/03/28 04:04:06;;;;;;;76.70;66.10;;;;;;;-1.65;52.27;98707.89;105186;1284;22652;-79
2022/03/28 04:06:34;;;;;;;83.90;69.10;;;;;;;-1.68;52.39;98705.15;104958;1286;22553;-79
2022/03/28 04:09:02;;;;;;;78.30;69.90;;;;;;;-1.68;52.56;98700.77;105204;1284;22559;-82
2022/03/28 04:11:30;;;;;;;83.00;72.60;;;;;;;-1.63;52.65;98703.90;105292;1284;25432;-82
2022/03/28 04:13:58;;;;;;;70.70;63.30;;;;;;;-1.60;52.69;98706.14;105292;1284;25334;-81
2022/03/28 04:16:26;;;;;;;73.00;63.20;;;;;;;-1.62;52.77;98705.13;105297;1284;22561;-78
2022/03/28 04:18:54;;;;;;;75.10;62.40;;;;;;;-1.62;52.72;98706.91;104952;1284;22544;-79
2022/03/28 04:21:22;;;;;;;73.60;65.60;;;;;;;-1.58;52.73;98704.45;105113;1284;23242;-80
2022/03/28 04:23:50;;;;;;;82.00;66.80;;;;;;;-1.52;52.86;98704.16;105289;1284;25500;-80
2022/03/28 04:26:18;;;;;;;85.10;68.80;;;;;;;-1.45;52.80;98707.63;104849;1284;22571;-79
2022/03/28 04:28:46;;;;;;;77.20;67.90;;;;;;;-1.45;53.13;98705.84;105425;1284;22500;-80
2022/03/28 04:31:15;;;;;;;77.60;61.70;;;;;;;-1.45;53.16;98704.63;105486;1285;22633;-81
2022/03/28 04:33:43;;;;;;;71.00;62.00;;;;;;;-1.41;53.85;98703.13;105199;1284;24411;-77
2022/03/28 04:36:11;;;;;;;76.00;62.30;;;;;;;-1.32;54.03;98708.99;105026;1284;22697;-76
2022/03/28 04:38:39;;;;;;;69.80;62.20;;;;;;;-1.24;53.74;98706.63;105087;1285;24145;-80
2022/03/28 04:41:06;;;;;;;86.30;62.20;;;;;;;-1.17;54.46;98704.81;105386;1284;23436;-80
2022/03/28 04:43:34;;;;;;;124.20;78.80;;;;;;;-1.11;54.44;98705.55;105355;1284;23334;-80
2022/03/28 04:46:02;;;;;;;80.20;65.30;;;;;;;-1.15;53.80;98703.19;105340;1284;23617;-79
2022/03/28 04:48:32;;;;;;;76.60;68.20;;;;;;;-1.14;54.29;98700.30;105429;1284;22659;-79
2022/03/28 04:51:00;;;;;;;78.30;65.90;;;;;;;-1.07;54.81;98702.13;104936;1285;24233;-80
2022/03/28 04:53:28;;;;;;;84.30;67.50;;;;;;;-1.00;55.70;98701.23;105433;1284;23674;-78
2022/03/28 04:55:56;;;;;;;69.00;61.80;;;;;;;-0.95;56.21;98701.35;105189;1284;22807;-80
2022/03/28 04:58:23;;;;;;;71.30;61.20;;;;;;;-0.86;56.50;98700.05;105398;1284;22703;-80
2022/03/28 05:00:52;;;;;;;83.40;70.70;;;;;;;-0.75;56.40;98705.28;105418;1284;25410;-79
2022/03/28 05:03:24;;;;;;;78.40;69.70;;;;;;;-0.71;55.64;98708.09;105194;1284;26645;-79
2022/03/28 05:05:51;;;;;;;76.90;66.40;;;;;;;-0.65;56.37;98705.30;105218;1284;23854;-80
2022/03/28 05:08:19;;;;;;;71.60;60.10;;;;;;;-0.51;55.61;98700.60;105175;1285;24329;-80
2022/03/28 05:10:47;;;;;;;66.30;58.10;;;;;;;-0.36;56.30;98698.55;105216;1283;22572;-80
2022/03/28 05:13:15;;;;;;;73.90;65.90;;;;;;;-0.16;55.52;98694.98;105337;1284;22636;-79
2022/03/28 05:15:43;;;;;;;71.40;62.40;;;;;;;-0.01;55.47;98692.58;105214;1284;24322;-79
2022/03/28 05:18:14;;;;;;;76.20;60.60;;;;;;;0.15;55.87;98692.73;105134;1284;22551;-79
2022/03/28 05:20:42;;;;;;;68.50;61.00;;;;;;;0.33;56.50;98689.98;104974;1285;24020;-80
2022/03/28 05:23:10;;;;;;;70.60;61.10;;;;;;;0.51;55.83;98691.42;105127;1284;25526;-79
2022/03/28 05:25:38;;;;;;;65.10;56.70;;;;;;;0.70;55.79;98689.60;105064;1284;25243;-80
2022/03/28 05:28:06;;;;;;;78.70;60.80;;;;;;;0.87;56.38;98684.22;105264;1285;22800;-79
2022/03/28 05:30:34;;;;;;;63.50;56.00;;;;;;;1.04;56.57;98686.94;105246;1284;25254;-79
2022/03/28 05:33:02;;;;;;;64.90;57.50;;;;;;;1.19;55.82;98688.08;105225;1284;22724;-80
2022/03/28 05:35:30;;;;;;;59.00;52.80;;;;;;;1.34;56.10;98689.44;105453;1284;22711;-80
2022/03/28 05:37:59;;;;;;;60.90;54.40;;;;;;;1.48;55.52;98687.58;104884;1286;24355;-80
2022/03/28 05:40:27;;;;;;;60.00;53.70;;;;;;;1.62;55.34;98693.08;105362;1284;22563;-80
2022/03/28 05:42:55;;;;;;;54.60;48.70;;;;;;;1.74;55.11;98691.38;105310;1284;22562;-79
2022/03/28 05:45:24;;;;;;;55.10;49.20;;;;;;;1.86;54.83;98690.63;105021;1285;24297;-79
2022/03/28 05:47:52;;;;;;;56.40;47.40;;;;;;;1.99;54.58;98692.48;105211;1284;23515;-80
2022/03/28 05:50:20;;;;;;;54.50;48.50;;;;;;;2.09;54.39;98690.27;105448;1284;22708;-79
2022/03/28 05:52:48;;;;;;;59.80;50.00;;;;;;;2.20;54.66;98688.61;105007;1285;25427;-79
2022/03/28 05:55:16;;;;;;;59.40;51.40;;;;;;;2.31;54.63;98684.64;105218;1285;22573;-80
2022/03/28 05:57:44;;;;;;;55.60;49.60;;;;;;;2.39;54.61;98681.81;105026;1284;22710;-78
2022/03/28 06:00:14;;;;;;;60.80;54.70;;;;;;;2.51;54.96;98680.41;105471;1284;24342;-80
2022/03/28 06:02:43;;;;;;;50.20;43.10;;;;;;;2.64;54.71;98686.11;105007;1285;23425;-81
2022/03/28 06:05:12;;;;;;;61.50;54.90;;;;;;;2.75;54.66;98679.91;105198;1285;22677;-80
2022/03/28 06:07:40;;;;;;;49.10;44.00;;;;;;;2.87;54.31;98682.81;105267;1285;23631;-79
2022/03/28 06:10:08;;;;;;;48.50;42.60;;;;;;;2.99;54.22;98678.41;105345;1285;22563;-81
2022/03/28 06:12:36;;;;;;;47.70;42.30;;;;;;;3.11;53.94;98680.25;105366;1285;22632;-80
2022/03/28 06:15:05;;;;;;;51.40;40.20;;;;;;;3.24;53.94;98679.41;105147;1285;22713;-85
2022/03/28 06:17:33;;;;;;;54.40;43.50;;;;;;;3.36;53.50;98681.96;105176;1285;22626;-80
2022/03/28 06:20:04;;;;;;;45.00;40.10;;;;;;;3.49;53.44;98678.91;105591;1285;24222;-82
2022/03/28 06:22:32;;;;;;;45.90;38.90;;;;;;;3.64;53.35;98676.55;105417;1284;23302;-80
2022/03/28 06:25:01;;;;;;;47.60;41.50;;;;;;;3.77;53.26;98669.57;105126;1284;25333;-80
2022/03/28 06:27:50;;;;;;;49.00;40.40;;;;;;;3.92;52.86;98668.82;105069;1284;25485;-80
2022/03/28 06:30:17;;;;;;;46.00;39.80;;;;;;;4.06;52.81;98670.21;105089;1284;24426;-80
2022/03/28 06:32:45;;;;;;;48.00;41.20;;;;;;;4.21;52.94;98664.52;105442;1284;25238;-79
2022/03/28 06:35:13;;;;;;;44.80;37.20;;;;;;;4.37;52.41;98662.36;105241;1285;25368;-79
2022/03/28 06:37:41;;;;;;;46.00;38.00;;;;;;;4.52;52.16;98662.99;105185;1284;22720;-81
2022/03/28 06:40:10;;;;;;;47.00;37.80;;;;;;;4.68;52.21;98659.73;105096;1284;22567;-83
2022/03/28 06:42:42;;;;;;;42.50;37.80;;;;;;;4.83;51.91;98658.55;105229;1284;22927;-76
2022/03/28 06:45:11;;;;;;;42.10;34.00;;;;;;;4.97;51.68;98653.16;106244;1284;22503;-80
2022/03/28 06:47:39;;;;;;;40.00;32.50;;;;;;;5.11;51.95;98655.02;105565;1285;22711;-78
2022/03/28 06:50:08;;;;;;;43.10;33.60;;;;;;;5.26;52.00;98654.13;105686;1284;23130;-79
2022/03/28 06:52:37;;;;;;;38.00;30.50;;;;;;;5.41;51.41;98652.19;105159;1284;22577;-78
2022/03/28 06:55:05;;;;;;;35.10;25.40;;;;;;;5.58;50.69;98651.93;105169;1284;25358;-78
2022/03/28 06:57:33;;;;;;;29.20;23.40;;;;;;;5.78;49.61;98649.41;105318;1284;25437;-79
2022/03/28 07:00:02;;;;;;;29.40;22.70;;;;;;;6.00;48.78;98647.83;105074;1285;22607;-79
2022/03/28 07:02:30;;;;;;;35.70;26.60;;;;;;;6.19;47.19;98642.85;105242;1284;22713;-80
2022/03/28 07:04:59;;;;;;;31.10;24.20;;;;;;;6.36;46.74;98642.86;105040;1284;25279;-80
2022/03/28 07:07:27;;;;;;;31.20;23.50;;;;;;;6.51;47.07;98644.13;105109;1284;22564;-80
2022/03/28 07:09:55;;;;;;;24.90;21.40;;;;;;;6.65;46.51;98646.08;105247;1284;25422;-78
2022/03/28 07:12:25;;;;;;;28.10;24.60;;;;;;;6.76;44.97;98647.40;104972;1285;22670;-81
2022/03/28 07:14:53;;;;;;;30.50;23.70;;;;;;;6.85;45.31;98641.14;105359;1284;24418;-82
2022/03/28 07:17:21;;;;;;;31.90;24.10;;;;;;;6.93;44.57;98635.32;105228;1284;22703;-81
2022/03/28 07:19:49;;;;;;;29.80;23.90;;;;;;;7.03;44.85;98630.25;105280;1284;25424;-81
2022/03/28 07:22:17;;;;;;;30.20;24.50;;;;;;;7.13;45.51;98628.55;105615;1284;25376;-82
2022/03/28 07:24:45;;;;;;;27.70;23.70;;;;;;;7.25;44.77;98620.04;105565;1284;24345;-81
2022/03/28 07:27:14;;;;;;;27.40;24.10;;;;;;;7.37;43.93;98630.83;105696;1284;23238;-83
2022/03/28 07:29:43;;;;;;;27.00;23.70;;;;;;;7.44;43.68;98626.05;105872;1284;22702;-80
2022/03/28 07:32:11;;;;;;;28.30;24.30;;;;;;;7.52;43.44;98624.91;106256;1284;24389;-84
2022/03/28 07:34:45;;;;;;;28.50;25.30;;;;;;;7.63;44.14;98621.73;105403;1284;25558;-81
2022/03/28 07:37:13;;;;;;;32.20;25.70;;;;;;;7.72;43.04;98620.34;105593;1286;25350;-82
2022/03/28 07:39:41;;;;;;;29.70;24.60;;;;;;;7.82;43.16;98610.77;105625;1284;25432;-82
2022/03/28 07:42:10;;;;;;;32.00;25.30;;;;;;;7.93;43.28;98604.73;105519;1284;22712;-83
2022/03/28 07:44:38;;;;;;;27.00;24.20;;;;;;;8.05;43.16;98603.06;105374;1285;25262;-81
2022/03/28 07:47:08;;;;;;;26.50;23.70;;;;;;;8.16;42.68;98601.14;105529;1284;24217;-82
2022/03/28 07:49:38;;;;;;;28.10;24.50;;;;;;;8.29;43.20;98588.71;105450;1284;25352;-82
2022/03/28 07:52:07;;;;;;;32.50;25.70;;;;;;;8.42;42.70;98590.20;105561;1284;22836;-82
2022/03/28 07:54:36;;;;;;;32.60;24.20;;;;;;;8.57;42.35;98584.78;105759;1284;22563;-82
2022/03/28 07:57:05;;;;;;;30.80;25.90;;;;;;;8.71;42.09;98583.66;105447;1284;22753;-83
2022/03/28 07:59:33;;;;;;;26.70;23.10;;;;;;;8.85;42.33;98575.41;105438;1284;22558;-80
2022/03/28 08:02:01;;;;;;;25.80;22.40;;;;;;;8.98;43.03;98568.70;106049;1284;24384;-82
2022/03/28 08:04:30;;;;;;;26.90;21.90;;;;;;;9.14;41.87;98570.80;105577;1284;24318;-83
2022/03/28 08:06:57;;;;;;;26.70;23.90;;;;;;;9.31;41.77;98566.13;105392;1285;25340;-83
2022/03/28 08:09:26;;;;;;;25.20;22.60;;;;;;;9.45;41.27;98556.67;105412;1284;22661;-83
2022/03/28 08:11:56;;;;;;;29.20;23.40;;;;;;;9.58;41.86;98556.67;105426;1284;22558;-83
2022/03/28 08:14:25;;;;;;;27.70;20.80;;;;;;;9.72;42.00;98557.48;105500;1284;24316;-81
2022/03/28 08:16:53;;;;;;;24.40;21.60;;;;;;;9.85;41.07;98553.90;105576;1286;22714;-82
2022/03/28 08:19:22;;;;;;;27.80;23.80;;;;;;;9.97;42.07;98545.66;105396;1285;22721;-83
2022/03/28 08:21:50;;;;;;;27.80;23.90;;;;;;;10.12;41.98;98541.30;105402;1285;22551;-82
2022/03/28 08:24:18;;;;;;;25.10;20.60;;;;;;;10.27;41.66;98543.15;105573;1284;22554;-83
2022/03/28 08:26:47;;;;;;;28.10;25.10;;;;;;;10.40;42.14;98533.36;105774;1284;22541;-82
2022/03/28 08:29:15;;;;;;;26.10;23.30;;;;;;;10.55;41.41;98533.04;105579;1284;22600;-82
2022/03/28 08:31:44;;;;;;;27.30;22.70;;;;;;;10.69;41.37;98524.27;105373;1286;25598;-84
2022/03/28 08:34:11;;;;;;;22.50;20.10;;;;;;;10.84;40.86;98525.64;105553;1284;25311;-82
2022/03/28 08:36:40;;;;;;;23.10;20.50;;;;;;;10.99;39.93;98525.77;105531;1284;24336;-83
2022/03/28 08:39:09;;;;;;;23.30;21.00;;;;;;;11.06;39.54;98523.91;105663;1284;24299;-82
2022/03/28 08:41:38;;;;;;;22.50;20.00;;;;;;;11.13;40.04;98514.84;105377;1285;22587;-83
2022/03/28 08:44:05;;;;;;;26.10;21.80;;;;;;;11.20;39.80;98513.73;105432;1285;22738;-81
2022/03/28 08:46:35;;;;;;;23.20;20.70;;;;;;;11.30;40.12;98512.48;105662;1284;25433;-83
2022/03/28 08:49:04;;;;;;;21.20;18.90;;;;;;;11.40;39.96;98511.17;105585;1285;25478;-84
2022/03/28 08:51:32;;;;;;;26.20;20.60;;;;;;;11.51;39.36;98509.95;105341;1284;22702;-83
2022/03/28 08:54:00;;;;;;;22.60;20.20;;;;;;;11.63;39.52;98506.50;105519;1284;22570;-82
2022/03/28 08:56:28;;;;;;;23.10;20.80;;;;;;;11.72;39.69;98497.08;105429;1284;22550;-83
2022/03/28 08:59:08;;;;;;;23.10;20.40;;;;;;;11.88;39.69;98494.73;105559;1284;22873;-83
2022/03/28 09:01:37;;;;;;;25.00;22.10;;;;;;;12.02;39.69;98487.14;105500;1284;24442;-83
2022/03/28 09:04:08;;;;;;;31.00;22.80;;;;;;;12.13;38.99;98481.23;105544;1284;24916;-83
2022/03/28 09:06:42;;;;;;;24.20;21.60;;;;;;;12.26;39.38;98477.63;105435;1284;22622;-83
2022/03/28 09:09:23;;;;;;;23.00;20.50;;;;;;;12.41;39.52;98478.14;105387;1285;22588;-83
2022/03/28 09:11:58;;;;;;;23.50;19.30;;;;;;;12.55;39.48;98472.11;105564;1284;25492;-84
2022/03/28 09:14:33;;;;;;;22.60;16.60;;;;;;;12.68;39.44;98463.00;105595;1284;24346;-84
2022/03/28 09:17:08;;;;;;;17.60;15.00;;;;;;;12.79;37.64;98463.45;105563;1284;22790;-84
2022/03/28 09:19:53;;;;;;;21.40;17.50;;;;;;;12.93;38.00;98458.75;105620;1285;23350;-82
2022/03/28 09:22:27;;;;;;;19.70;15.30;;;;;;;13.12;38.44;98458.20;105534;1284;24390;-82
2022/03/28 09:24:57;;;;;;;;;;;;;;;13.27;36.97;98460.48;105515;1284;22721;-82
2022/03/28 09:27:28;;;;;;;19.80;14.70;;;;;;;13.34;37.31;98458.34;105552;1284;25480;-83
2022/03/28 09:30:03;;;;;;;16.00;12.90;;;;;;;13.44;36.13;98459.91;105636;1284;22585;-83
2022/03/28 09:32:37;;;;;;;15.50;12.30;;;;;;;13.54;36.07;98455.04;105419;1284;22576;-83
2022/03/28 09:35:12;;;;;;;14.60;12.10;;;;;;;13.63;35.70;98453.11;105585;1284;26650;-81
2022/03/28 09:37:48;;;;;;;14.90;11.00;;;;;;;13.71;35.63;98456.41;105438;1284;24069;-81
2022/03/28 09:40:41;;;;;;;13.60;11.40;;;;;;;13.75;35.52;98442.07;105580;1285;23656;-83
2022/03/28 09:43:21;;;;;;;18.30;12.20;;;;;;;13.83;34.76;98433.44;105872;1285;25418;-83
2022/03/28 09:45:51;;;;;;;15.00;11.00;;;;;;;13.91;34.76;98436.02;105686;1284;23878;-82
2022/03/28 09:48:22;;;;;;;13.70;10.90;;;;;;;13.98;34.05;98434.70;105687;1284;23331;-82
2022/03/28 09:51:05;;;;;;;12.40;11.10;;;;;;;14.02;33.57;98428.48;105517;1284;22563;-83
2022/03/28 09:53:38;;;;;;;14.00;12.10;;;;;;;14.06;34.06;98428.98;105469;1284;22730;-82
2022/03/28 09:56:09;;;;;;;12.60;11.30;;;;;;;14.12;33.49;98422.45;105592;1284;22562;-83
2022/03/28 09:58:43;;;;;;;14.50;10.70;;;;;;;14.22;33.78;98411.52;105551;1284;22697;-80
2022/03/28 10:01:17;;;;;;;15.30;11.70;;;;;;;14.37;34.30;98417.15;105561;1284;22571;-81
2022/03/28 10:03:49;;;;;;;15.80;12.10;;;;;;;14.52;34.13;98412.17;105577;1284;26664;-83
2022/03/28 10:06:19;;;;;;;14.80;11.60;;;;;;;14.60;33.34;98403.56;105618;1284;22701;-83
2022/03/28 10:08:48;;;;;;;16.30;11.80;;;;;;;14.69;33.40;98402.25;105551;1284;22563;-82
2022/03/28 10:11:17;;;;;;;15.10;12.50;;;;;;;14.73;32.47;98390.67;105586;1284;24451;-81
2022/03/28 10:13:47;;;;;;;12.10;10.80;;;;;;;14.72;32.77;98388.15;105593;1284;22707;-82
2022/03/28 10:16:16;;;;;;;12.80;11.50;;;;;;;14.79;33.29;98382.59;105562;1284;25378;-81
2022/03/28 10:18:45;;;;;;;16.70;10.70;;;;;;;14.82;33.35;98378.80;105629;1287;25605;-82
2022/03/28 10:21:16;;;;;;;15.00;11.30;;;;;;;14.90;33.13;98387.86;105643;1284;22558;-81
2022/03/28 10:23:59;;;;;;;16.50;12.50;;;;;;;14.97;32.68;98382.02;105575;1284;22554;-82
2022/03/28 10:26:55;;;;;;;12.30;10.10;;;;;;;14.98;32.38;98369.17;105419;1284;25606;-81
2022/03/28 10:29:23;;;;;;;21.50;14.00;;;;;;;15.08;32.99;98376.06;105541;1287;22607;-82
2022/03/28 10:32:15;;;;;;;15.40;11.10;;;;;;;15.15;32.02;98376.61;105155;1287;25672;-82
2022/03/28 10:35:00;;;;;;;14.00;10.50;;;;;;;15.19;32.54;98363.47;105622;1284;22663;-82
2022/03/28 10:37:32;;;;;;;15.70;11.90;;;;;;;15.28;32.78;98356.73;105554;1284;25709;-82
2022/03/28 10:40:18;;;;;;;16.90;13.00;;;;;;;15.40;32.12;98358.04;105505;1284;24413;-82
2022/03/28 10:43:11;;;;;;;12.60;10.40;;;;;;;15.47;31.53;98349.05;105481;1284;24062;-81
2022/03/28 10:45:53;;;;;;;12.10;10.80;;;;;;;15.50;32.38;98334.92;105570;1284;22566;-81
2022/03/28 10:48:40;;;;;;;14.00;11.10;;;;;;;15.61;32.00;98336.97;105564;1284;22617;-82
2022/03/28 10:51:18;;;;;;;12.60;11.10;;;;;;;15.68;31.16;98328.18;105668;1284;24292;-82
2022/03/28 10:53:58;;;;;;;14.60;11.60;;;;;;;15.76;31.49;98323.14;105520;1284;22571;-82
2022/03/28 10:56:30;;;;;;;15.20;10.90;;;;;;;15.84;31.53;98317.55;105559;1284;25695;-80
2022/03/28 10:59:03;;;;;;;12.40;9.70;;;;;;;15.92;31.66;98309.45;105409;1284;22580;-81
2022/03/28 11:01:31;;;;;;;13.00;10.10;;;;;;;16.02;30.66;98310.71;105555;1284;22743;-81
2022/03/28 11:04:15;;;;;;;15.10;10.30;;;;;;;16.07;31.06;98299.11;105541;1284;26970;-81
2022/03/28 11:06:49;;;;;;;11.00;9.60;;;;;;;16.19;31.24;98306.42;105622;1284;24279;-80
2022/03/28 11:09:48;;;;;;;12.60;9.90;;;;;;;16.22;30.53;98293.82;105583;1284;22603;-81
2022/03/28 11:12:29;;;;;;;15.20;10.10;;;;;;;16.19;29.74;98297.19;105549;1284;23490;-82
2022/03/28 11:15:13;;;;;;;13.10;9.90;;;;;;;16.21;30.35;98288.80;105523;1284;24216;-81
2022/03/28 11:18:07;;;;;;;12.50;9.70;;;;;;;16.31;30.21;98277.42;105565;1284;25482;-81
2022/03/28 11:20:46;;;;;;;14.00;10.20;;;;;;;16.51;30.39;98273.88;105501;1284;24385;-80
2022/03/28 11:23:15;;;;;;;11.50;9.70;;;;;;;16.68;29.89;98271.95;105129;1284;22680;-83
2022/03/28 11:25:55;;;;;;;12.80;10.60;;;;;;;16.76;29.41;98267.92;105735;1284;22558;-81
2022/03/28 11:28:22;;;;;;;11.70;10.20;;;;;;;16.83;29.32;98264.40;105424;1285;22568;-82